Portada
METAR-TAF:

METAR-TAF

Aeropuertos :

Mendoza, Argentina

Aeropuerto Internacional Gobernador Francisco Gabrielli

latitud: 32-50S, longitud: 068-47W, altitud: 705 m

Observación

El informe se hizo hace 41 minutos, a las 09:00 UTC
Viento 3 kt del suroeste
Temperatura 16°C
Humedad 59%
Presión 1013 hPa
Visibilidad 10 km o más
sin nubes por debajo de 1500 m y sin presencia de cumulonimbus.

METAR: SAME 190900Z 23003KT CAVOK 16/08 Q1013

Hora: 06:41 (09:41 UTC)

Pronóstico

El informe se hizo hace 4 horas y 41 minutos, a las 05:00 UTC
Pronóstico válido del 19 a las 06 UTC al 20 a las 06 UTC
Viento 2 kt con dirección variable
Visibilidad 10 km o más
sin nubes por debajo de 1500 m y sin presencia de cumulonimbus.

TAF: SAME 190500Z 1906/2006 VRB02KT CAVOK TN15/1910Z TX27/1920Z

Observaciones y pronósticos meteorológicos de más de 4000 aeropuertos (mensajes METAR y TAF).

Los puntos amarillos y rojos representan las estaciones disponibles.

Ponga el ratón en el punto deseado para ver el nombre de la estación.

Haga clic para ver las observaciones y los pronósticos meteorológicos.

Para cambiar el mapa : haga clic en los botones verdes con una cruz de color negro para hacer un zoom, en el botón verde con un guión para alejar o en las flechas verdes para mapas adyacentes.


METAR-TAF: